Cardville, Maine
Current Conditions -  °F | °C
As of 4:53 AM on Monday 20 Oct 2014 (Local Time) from KBGR Reporting Station
Scattered Clouds Scattered Clouds  
Wind Chill: 29°   Ceiling: Unl
Heat Index: 36°   Visibility: 10mi
Dew Point: 26°   Wind: 9mph
Humidity: 67%   Direction: 300°WNW
Pressure: 29.86"   Gusts: NA
Location:  45.05°N, 68.6°W
Report Text: KBGR 200853Z 30008KT 10SM SCT045 02/M03 A2986 RMK AO2 SLP113 T00221033 53013
Loading
Personal Weather Stations






























Interactive Weather Map
Tropical Storm Tracking
New forecast layout! Learn more

10-Day Weather Forecast

Advertisements
Track Severe Weather on mobile